Time;durP1;ratioP1;P1;durP2;ratioP2;P2;SDS_P1;SDS_P2;PMS_P1;PMS_P2;Temp;Humidity;BMP_temperature;BMP_pressure;BME280_temperature;BME280_humidity;BME280_pressure;Samples;Min_cycle;Max_cycle;Signal;HPM_P1;HPM_P2
2021/03/18 00:00:04;;;;;;;;;;;23.30;39.60;;;;;;1681935;69;1227;-66
2021/03/18 00:02:06;;;;;;;;;;;23.40;39.40;;;;;;1689173;69;1870;-66
2021/03/18 00:04:11;;;;;;;;;;;23.40;39.40;;;;;;1681278;69;815;-65
2021/03/18 00:06:13;;;;;;;;;;;23.50;39.30;;;;;;1673882;69;1925;-66
2021/03/18 00:08:15;;;;;;;;;;;23.50;39.20;;;;;;1663757;69;815;-65
2021/03/18 00:10:17;;;;;;;;;;;23.50;39.20;;;;;;1687111;69;1170;-66
2021/03/18 00:12:19;;;;;;;;;;;23.50;39.20;;;;;;1682398;69;816;-68
2021/03/18 00:14:21;;;;;;;;;;;23.50;39.10;;;;;;1684851;69;760;-65
2021/03/18 00:16:23;;;;;;;;;;;23.50;39.10;;;;;;1682011;69;755;-66
2021/03/18 00:18:27;;;;;;;;;;;23.50;39.10;;;;;;1680438;69;774;-68
2021/03/18 00:20:28;;;;;;;;;;;23.50;39.10;;;;;;1680213;69;1139;-66
2021/03/18 00:22:30;;;;;;;;;;;23.50;39.00;;;;;;1678820;69;760;-65
2021/03/18 00:24:32;;;;;;;;;;;23.60;39.00;;;;;;1685380;69;804;-65
2021/03/18 00:26:34;;;;;;;;;;;23.50;39.20;;;;;;1687639;69;1931;-65
2021/03/18 00:28:36;;;;;;;;;;;23.50;39.00;;;;;;1689733;69;779;-64
2021/03/18 00:30:38;;;;;;;;;;;23.60;39.00;;;;;;1672356;69;1176;-68
2021/03/18 00:32:40;;;;;;;;;;;23.60;38.90;;;;;;1677993;69;756;-65
2021/03/18 00:34:42;;;;;;;;;;;23.60;38.90;;;;;;1685974;69;815;-65
2021/03/18 00:36:43;;;;;;;;;;;23.60;38.90;;;;;;1693248;69;742;-65
2021/03/18 00:38:46;;;;;;;;;;;23.50;38.90;;;;;;1679649;69;754;-65
2021/03/18 00:40:48;;;;;;;;;;;23.60;38.90;;;;;;1687412;69;1161;-66
2021/03/18 00:42:50;;;;;;;;;;;23.60;38.80;;;;;;1653936;69;782;-66
2021/03/18 00:44:52;;;;;;;;;;;23.60;38.80;;;;;;1676887;69;763;-66
2021/03/18 00:46:54;;;;;;;;;;;23.60;38.80;;;;;;1698164;69;1925;-66
2021/03/18 00:48:56;;;;;;;;;;;23.60;38.90;;;;;;1682474;69;763;-66
2021/03/18 00:50:59;;;;;;;;;;;23.50;38.90;;;;;;1689381;69;1099;-67
2021/03/18 00:53:01;;;;;;;;;;;23.50;39.00;;;;;;1681783;69;1675;-66
2021/03/18 00:55:03;;;;;;;;;;;23.50;39.10;;;;;;1680393;69;757;-65
2021/03/18 00:57:05;;;;;;;;;;;23.50;39.20;;;;;;1689510;69;794;-66
2021/03/18 00:59:07;;;;;;;;;;;23.40;39.10;;;;;;1665880;69;774;-66
2021/03/18 01:01:09;;;;;;;;;;;23.40;39.00;;;;;;1679946;69;1228;-66
2021/03/18 01:03:11;;;;;;;;;;;23.40;38.90;;;;;;1674397;69;727;-65
2021/03/18 01:05:13;;;;;;;;;;;23.50;39.00;;;;;;1682390;69;813;-66
2021/03/18 01:07:15;;;;;;;;;;;23.50;39.00;;;;;;1675510;69;1945;-66
2021/03/18 01:09:17;;;;;;;;;;;23.50;39.10;;;;;;1681505;69;762;-66
2021/03/18 01:11:20;;;;;;;;;;;23.50;39.00;;;;;;1681288;69;1226;-62
2021/03/18 01:13:22;;;;;;;;;;;23.50;39.00;;;;;;1683889;69;755;-66
2021/03/18 01:15:24;;;;;;;;;;;23.50;39.10;;;;;;1684569;69;769;-66
2021/03/18 01:17:26;;;;;;;;;;;23.50;39.10;;;;;;1681104;69;766;-65
2021/03/18 01:19:28;;;;;;;;;;;23.50;39.30;;;;;;1691067;69;818;-66
2021/03/18 01:21:31;;;;;;;;;;;23.40;39.20;;;;;;1679305;69;1120;-65
2021/03/18 01:23:33;;;;;;;;;;;23.40;39.10;;;;;;1683901;69;784;-67
2021/03/18 01:25:35;;;;;;;;;;;23.40;39.00;;;;;;1679515;69;751;-67
2021/03/18 01:27:38;;;;;;;;;;;23.50;39.20;;;;;;1686207;69;1931;-65
2021/03/18 01:29:40;;;;;;;;;;;23.50;39.00;;;;;;1681923;69;749;-67
2021/03/18 01:31:42;;;;;;;;;;;23.40;38.90;;;;;;1693119;69;1222;-67
2021/03/18 01:33:44;;;;;;;;;;;23.50;39.00;;;;;;1687376;69;731;-68
2021/03/18 01:35:46;;;;;;;;;;;23.60;38.90;;;;;;1676028;69;775;-66
2021/03/18 01:37:48;;;;;;;;;;;23.60;38.80;;;;;;1679977;69;789;-66
2021/03/18 01:39:50;;;;;;;;;;;23.70;38.70;;;;;;1686442;69;1164;-66
2021/03/18 01:41:51;;;;;;;;;;;23.70;38.70;;;;;;1682202;69;730;-66
2021/03/18 01:43:53;;;;;;;;;;;23.60;38.60;;;;;;1676760;69;771;-66
2021/03/18 01:45:55;;;;;;;;;;;23.60;38.60;;;;;;1691237;69;1914;-67
2021/03/18 01:47:57;;;;;;;;;;;23.60;38.70;;;;;;1685432;69;801;-66
2021/03/18 01:49:59;;;;;;;;;;;23.60;38.70;;;;;;1678990;69;1170;-66
2021/03/18 01:52:01;;;;;;;;;;;23.60;38.80;;;;;;1680207;69;761;-68
2021/03/18 01:54:03;;;;;;;;;;;23.50;38.90;;;;;;1680826;69;736;-64
2021/03/18 01:56:05;;;;;;;;;;;23.50;38.90;;;;;;1682054;69;753;-64
2021/03/18 01:58:07;;;;;;;;;;;23.50;39.10;;;;;;1682287;69;744;-65
2021/03/18 02:00:09;;;;;;;;;;;23.40;39.30;;;;;;1676530;69;1123;-65
2021/03/18 02:02:11;;;;;;;;;;;23.40;39.40;;;;;;1686520;69;734;-65
2021/03/18 02:04:13;;;;;;;;;;;23.40;39.40;;;;;;1667003;69;795;-65
2021/03/18 02:06:14;;;;;;;;;;;23.40;39.40;;;;;;1683189;69;1926;-62
2021/03/18 02:08:16;;;;;;;;;;;23.40;39.30;;;;;;1637871;70;914;-63
2021/03/18 02:10:18;;;;;;;;;;;23.40;39.20;;;;;;1689671;69;1121;-65
2021/03/18 02:12:20;;;;;;;;;;;23.40;39.20;;;;;;1682292;69;700;-66
2021/03/18 02:14:22;;;;;;;;;;;23.50;39.20;;;;;;1670537;69;744;-64
2021/03/18 02:16:24;;;;;;;;;;;23.50;39.10;;;;;;1683868;69;720;-64
2021/03/18 02:18:27;;;;;;;;;;;23.50;39.10;;;;;;1678948;69;774;-65
2021/03/18 02:20:49;;;;;;;;;;;23.50;39.00;;;;;;1675528;69;1098;-66
2021/03/18 02:23:07;;;;;;;;;;;23.50;39.10;;;;;;1678018;69;740;-67
2021/03/18 02:25:13;;;;;;;;;;;23.40;39.10;;;;;;1674043;69;736;-68
2021/03/18 02:27:34;;;;;;;;;;;23.50;39.20;;;;;;1684097;69;1931;-66
2021/03/18 02:29:46;;;;;;;;;;;23.40;39.40;;;;;;1693330;69;778;-69
2021/03/18 02:32:04;;;;;;;;;;;23.20;39.40;;;;;;1679671;69;1603;-67
2021/03/18 02:34:10;;;;;;;;;;;23.30;39.70;;;;;;1697177;69;758;-69
2021/03/18 02:36:13;;;;;;;;;;;23.10;39.70;;;;;;1696983;69;1578;-70
2021/03/18 02:38:31;;;;;;;;;;;23.10;39.90;;;;;;1690030;69;811;-69
2021/03/18 02:40:34;;;;;;;;;;;23.10;39.90;;;;;;1685671;69;1592;-66
2021/03/18 02:42:36;;;;;;;;;;;23.20;39.90;;;;;;1673249;69;759;-65
2021/03/18 02:44:40;;;;;;;;;;;23.20;39.80;;;;;;1674851;69;723;-65
2021/03/18 02:46:42;;;;;;;;;;;23.10;39.90;;;;;;1667640;69;1942;-66
2021/03/18 02:48:44;;;;;;;;;;;23.10;39.90;;;;;;1680458;69;728;-67
2021/03/18 02:50:45;;;;;;;;;;;23.30;39.90;;;;;;1687093;69;1207;-66
2021/03/18 02:52:47;;;;;;;;;;;23.30;39.80;;;;;;1682240;69;763;-67
2021/03/18 02:54:51;;;;;;;;;;;23.20;39.60;;;;;;1687089;69;770;-67
2021/03/18 02:56:53;;;;;;;;;;;23.30;39.80;;;;;;1681908;69;691;-69
2021/03/18 02:58:54;;;;;;;;;;;23.30;39.70;;;;;;1675781;69;664;-66
2021/03/18 03:00:57;;;;;;;;;;;23.40;39.60;;;;;;1686318;69;1170;-65
2021/03/18 03:02:59;;;;;;;;;;;23.30;39.60;;;;;;1669107;69;727;-68
2021/03/18 03:05:01;;;;;;;;;;;23.40;39.60;;;;;;1639179;70;768;-66
2021/03/18 03:07:03;;;;;;;;;;;23.40;39.50;;;;;;1674789;69;1937;-66
2021/03/18 03:09:05;;;;;;;;;;;23.40;39.40;;;;;;1669211;69;759;-67
2021/03/18 03:11:07;;;;;;;;;;;23.40;39.40;;;;;;1681687;69;1165;-63
2021/03/18 03:13:09;;;;;;;;;;;23.50;39.40;;;;;;1699288;69;795;-67
2021/03/18 03:15:11;;;;;;;;;;;23.40;39.30;;;;;;1683670;69;745;-65
2021/03/18 03:17:14;;;;;;;;;;;23.40;39.30;;;;;;1684266;69;790;-65
2021/03/18 03:19:15;;;;;;;;;;;23.50;39.40;;;;;;1689248;69;808;-63
2021/03/18 03:21:17;;;;;;;;;;;23.40;39.20;;;;;;1686228;69;1151;-66
2021/03/18 03:23:19;;;;;;;;;;;23.40;39.30;;;;;;1679637;69;793;-64
2021/03/18 03:25:21;;;;;;;;;;;23.50;39.50;;;;;;1670944;69;739;-65
2021/03/18 03:27:23;;;;;;;;;;;23.50;39.30;;;;;;1682088;69;1932;-66
2021/03/18 03:29:25;;;;;;;;;;;23.50;39.40;;;;;;1677411;69;762;-66
2021/03/18 03:31:27;;;;;;;;;;;23.40;39.40;;;;;;1625936;70;216159;-55
2021/03/18 03:33:29;;;;;;;;;;;23.30;39.50;;;;;;1629541;71;712;-54
2021/03/18 03:35:31;;;;;;;;;;;23.30;39.70;;;;;;1631832;71;802;-58
2021/03/18 03:37:33;;;;;;;;;;;23.20;39.70;;;;;;1631005;71;760;-55
2021/03/18 03:39:35;;;;;;;;;;;23.20;39.80;;;;;;1618282;71;765;-58
2021/03/18 03:41:37;;;;;;;;;;;23.20;39.80;;;;;;1632577;71;1260;-55
2021/03/18 03:43:39;;;;;;;;;;;23.10;40.10;;;;;;1632238;71;764;-58
2021/03/18 03:45:41;;;;;;;;;;;23.10;40.10;;;;;;1634876;71;739;-59
2021/03/18 03:47:43;;;;;;;;;;;23.10;40.30;;;;;;1633953;71;1946;-58
2021/03/18 03:49:45;;;;;;;;;;;23.10;40.40;;;;;;1626843;71;750;-57
2021/03/18 03:51:48;;;;;;;;;;;23.10;40.40;;;;;;1622556;71;1173;-53
2021/03/18 03:53:53;;;;;;;;;;;23.10;40.50;;;;;;1616706;71;1123;-57
2021/03/18 03:56:03;;;;;;;;;;;23.10;40.60;;;;;;1636304;71;858;-57
2021/03/18 03:58:06;;;;;;;;;;;23.10;40.60;;;;;;1637646;71;740;-57
2021/03/18 04:00:08;;;;;;;;;;;23.10;40.60;;;;;;1624320;71;1010;-53
2021/03/18 04:02:10;;;;;;;;;;;23.10;40.70;;;;;;1623788;71;1236;-54
2021/03/18 04:04:16;;;;;;;;;;;23.10;40.70;;;;;;1629151;71;788;-57
2021/03/18 04:06:17;;;;;;;;;;;23.10;40.80;;;;;;1619201;71;646;-57
2021/03/18 04:08:19;;;;;;;;;;;23.10;40.70;;;;;;1628913;71;1933;-57
2021/03/18 04:10:21;;;;;;;;;;;23.10;40.70;;;;;;1624634;71;770;-56
2021/03/18 04:12:24;;;;;;;;;;;23.10;40.60;;;;;;1628281;71;1163;-54
2021/03/18 04:14:27;;;;;;;;;;;23.10;40.70;;;;;;1615968;71;803;-57
2021/03/18 04:16:28;;;;;;;;;;;23.20;40.50;;;;;;1640804;71;749;-56
2021/03/18 04:18:32;;;;;;;;;;;23.10;40.60;;;;;;1629250;71;751;-57
2021/03/18 04:20:34;;;;;;;;;;;23.20;40.70;;;;;;1624130;71;741;-57
2021/03/18 04:22:36;;;;;;;;;;;23.10;40.50;;;;;;1630401;71;1156;-54
2021/03/18 04:24:38;;;;;;;;;;;23.20;40.50;;;;;;1624200;71;811;-58
2021/03/18 04:26:40;;;;;;;;;;;23.20;40.30;;;;;;1624033;71;751;-58
2021/03/18 04:28:42;;;;;;;;;;;23.20;40.20;;;;;;1631173;71;1935;-55
2021/03/18 04:30:44;;;;;;;;;;;23.20;40.20;;;;;;1632427;71;759;-59
2021/03/18 04:32:46;;;;;;;;;;;23.20;40.30;;;;;;1633684;71;1188;-58
2021/03/18 04:34:48;;;;;;;;;;;23.20;40.20;;;;;;1627113;71;769;-56
2021/03/18 04:36:50;;;;;;;;;;;23.20;40.10;;;;;;1630085;71;803;-58
2021/03/18 04:38:51;;;;;;;;;;;23.20;40.00;;;;;;1622490;71;778;-57
2021/03/18 04:40:53;;;;;;;;;;;23.20;40.10;;;;;;1637997;71;731;-58
2021/03/18 04:42:56;;;;;;;;;;;23.30;40.00;;;;;;1620869;71;1174;-56
2021/03/18 04:44:58;;;;;;;;;;;23.20;40.00;;;;;;1622409;71;785;-58
2021/03/18 04:47:00;;;;;;;;;;;23.20;39.80;;;;;;1615188;71;1940;-58
2021/03/18 04:49:02;;;;;;;;;;;23.20;39.70;;;;;;1621140;71;746;-59
2021/03/18 04:51:07;;;;;;;;;;;23.20;39.50;;;;;;1615740;71;852;-57
2021/03/18 04:53:09;;;;;;;;;;;23.40;39.60;;;;;;1617327;71;1116;-56
2021/03/18 04:55:12;;;;;;;;;;;23.30;39.50;;;;;;1617514;71;689;-57
2021/03/18 04:57:15;;;;;;;;;;;23.20;39.30;;;;;;1632668;71;781;-54
2021/03/18 04:59:17;;;;;;;;;;;23.30;39.40;;;;;;1622726;71;744;-56
2021/03/18 05:01:19;;;;;;;;;;;23.30;39.30;;;;;;1619517;71;1159;-58
2021/03/18 05:03:21;;;;;;;;;;;23.30;39.20;;;;;;1621739;71;769;-59
2021/03/18 05:05:23;;;;;;;;;;;23.30;39.20;;;;;;1629398;71;764;-57
2021/03/18 05:07:25;;;;;;;;;;;23.30;39.20;;;;;;1623244;71;1930;-56
2021/03/18 05:09:27;;;;;;;;;;;23.30;39.20;;;;;;1629021;71;672;-56
2021/03/18 05:11:28;;;;;;;;;;;23.20;39.10;;;;;;1621014;71;1239;-54
2021/03/18 05:13:30;;;;;;;;;;;23.30;39.10;;;;;;1624741;71;749;-57
2021/03/18 05:15:33;;;;;;;;;;;23.30;39.10;;;;;;1629325;71;704;-59
2021/03/18 05:17:35;;;;;;;;;;;23.30;39.00;;;;;;1631502;71;789;-59
2021/03/18 05:19:37;;;;;;;;;;;23.40;39.00;;;;;;1604363;73;724;-56
2021/03/18 05:21:40;;;;;;;;;;;23.40;38.90;;;;;;1621811;71;1154;-56
2021/03/18 05:23:41;;;;;;;;;;;23.30;39.00;;;;;;1625550;71;679;-57
2021/03/18 05:25:44;;;;;;;;;;;23.30;38.90;;;;;;1620051;71;768;-55
2021/03/18 05:27:46;;;;;;;;;;;23.40;38.90;;;;;;1624602;71;1917;-57
2021/03/18 05:29:48;;;;;;;;;;;23.40;38.90;;;;;;1620414;71;637;-57
2021/03/18 05:31:50;;;;;;;;;;;23.30;38.90;;;;;;1619976;71;1178;-55
2021/03/18 05:33:52;;;;;;;;;;;23.40;38.90;;;;;;1621523;71;645;-54
2021/03/18 05:35:54;;;;;;;;;;;23.40;38.90;;;;;;1639824;71;801;-58
2021/03/18 05:37:56;;;;;;;;;;;23.40;38.90;;;;;;1619179;71;794;-57
2021/03/18 05:39:58;;;;;;;;;;;23.40;39.20;;;;;;1628701;71;781;-58
2021/03/18 05:42:00;;;;;;;;;;;23.40;39.00;;;;;;1617944;71;1152;-58
2021/03/18 05:44:03;;;;;;;;;;;23.40;39.00;;;;;;1611279;71;726;-59
2021/03/18 05:46:05;;;;;;;;;;;23.40;38.90;;;;;;1608127;73;756;-55
2021/03/18 05:48:07;;;;;;;;;;;23.40;38.90;;;;;;1620052;71;1944;-58
2021/03/18 05:50:12;;;;;;;;;;;23.40;38.90;;;;;;1635978;71;731;-59
2021/03/18 05:52:14;;;;;;;;;;;23.50;38.90;;;;;;1628333;71;1176;-59
2021/03/18 05:54:16;;;;;;;;;;;23.40;38.90;;;;;;1624885;71;776;-58
2021/03/18 05:56:21;;;;;;;;;;;23.40;38.90;;;;;;1619577;71;660;-58
2021/03/18 05:58:24;;;;;;;;;;;23.40;38.90;;;;;;1622194;71;745;-59
2021/03/18 06:00:26;;;;;;;;;;;23.40;38.90;;;;;;1632862;71;770;-55
2021/03/18 06:02:28;;;;;;;;;;;23.40;38.90;;;;;;1630240;71;1173;-57
2021/03/18 06:04:30;;;;;;;;;;;23.50;39.00;;;;;;1622318;71;759;-54
2021/03/18 06:06:32;;;;;;;;;;;23.40;38.80;;;;;;1621812;71;790;-58
2021/03/18 06:08:34;;;;;;;;;;;23.50;38.80;;;;;;1625759;71;1940;-58
2021/03/18 06:10:36;;;;;;;;;;;23.40;38.90;;;;;;1624085;71;732;-59
2021/03/18 06:12:38;;;;;;;;;;;23.40;39.30;;;;;;1624895;71;1231;-57
2021/03/18 06:14:40;;;;;;;;;;;23.50;39.50;;;;;;1619304;71;758;-58
2021/03/18 06:16:42;;;;;;;;;;;23.50;39.50;;;;;;1631188;71;762;-58
2021/03/18 06:18:43;;;;;;;;;;;23.50;39.00;;;;;;1643666;70;952;-58
2021/03/18 06:20:47;;;;;;;;;;;23.50;38.40;;;;;;1628132;71;762;-57
2021/03/18 06:22:49;;;;;;;;;;;23.50;38.50;;;;;;1627332;71;1129;-56
2021/03/18 06:24:51;;;;;;;;;;;23.60;38.30;;;;;;1631544;71;791;-56
2021/03/18 06:26:53;;;;;;;;;;;23.50;38.10;;;;;;1640743;71;736;-57
2021/03/18 06:28:55;;;;;;;;;;;23.50;37.80;;;;;;1624238;71;1939;-58
2021/03/18 06:31:09;;;;;;;;;;;23.50;37.80;;;;;;1631585;71;770;-56
2021/03/18 06:33:18;;;;;;;;;;;23.50;37.90;;;;;;1616444;71;1167;-58
2021/03/18 06:35:20;;;;;;;;;;;23.50;38.00;;;;;;1622471;71;821;-55
2021/03/18 06:37:40;;;;;;;;;;;23.40;37.60;;;;;;1633732;71;700;-58
2021/03/18 06:39:42;;;;;;;;;;;23.50;37.90;;;;;;1625918;71;776;-57
2021/03/18 06:41:45;;;;;;;;;;;23.40;37.80;;;;;;1626103;71;1169;-55
2021/03/18 06:43:47;;;;;;;;;;;23.50;37.70;;;;;;1637512;71;760;-56
2021/03/18 06:45:48;;;;;;;;;;;23.50;37.50;;;;;;1591989;73;662;-56
2021/03/18 06:47:51;;;;;;;;;;;23.50;37.40;;;;;;1631538;71;1933;-58
2021/03/18 06:50:02;;;;;;;;;;;23.40;37.20;;;;;;1617479;71;758;-57
2021/03/18 06:52:05;;;;;;;;;;;23.40;37.10;;;;;;1636528;71;1171;-58
2021/03/18 06:54:20;;;;;;;;;;;23.40;36.90;;;;;;1627125;71;669;-59
2021/03/18 06:56:26;;;;;;;;;;;23.40;36.70;;;;;;1627708;71;2000;-58
2021/03/18 06:58:28;;;;;;;;;;;23.50;36.80;;;;;;1630672;71;740;-57
2021/03/18 07:00:35;;;;;;;;;;;23.50;37.10;;;;;;1618760;71;793;-52
2021/03/18 07:02:40;;;;;;;;;;;23.60;37.10;;;;;;1626890;71;1504;-57
2021/03/18 07:04:44;;;;;;;;;;;23.60;37.20;;;;;;1625247;71;758;-57
2021/03/18 07:06:47;;;;;;;;;;;23.50;37.20;;;;;;1639119;71;1342;-52
2021/03/18 07:08:49;;;;;;;;;;;23.50;37.10;;;;;;1628721;71;1932;-56
2021/03/18 07:10:51;;;;;;;;;;;23.50;37.10;;;;;;1583323;73;1191;-57
2021/03/18 07:12:53;;;;;;;;;;;23.40;36.90;;;;;;1624232;71;1157;-56
2021/03/18 07:15:02;;;;;;;;;;;23.40;36.60;;;;;;1633735;71;652;-57
2021/03/18 07:17:02;;;;;;;;;;;23.40;36.60;;;;;;1624790;71;792;-57
2021/03/18 07:19:03;;;;;;;;;;;23.40;36.60;;;;;;1641506;71;802;-57
2021/03/18 07:21:14;;;;;;;;;;;23.30;36.60;;;;;;1639614;71;741;-57
2021/03/18 07:23:16;;;;;;;;;;;23.30;36.40;;;;;;1628112;71;1603;-56
2021/03/18 07:25:18;;;;;;;;;;;23.30;36.50;;;;;;1623567;71;1593;-57
2021/03/18 07:27:19;;;;;;;;;;;23.30;36.50;;;;;;1624081;71;803;-51
2021/03/18 07:29:24;;;;;;;;;;;23.30;36.40;;;;;;1615193;71;1935;-54
2021/03/18 07:31:26;;;;;;;;;;;23.30;36.40;;;;;;1621818;71;1189;-52
2021/03/18 07:33:28;;;;;;;;;;;23.30;35.40;;;;;;1609785;71;725;-57
2021/03/18 07:35:29;;;;;;;;;;;23.40;34.70;;;;;;1629982;71;796;-55
2021/03/18 07:37:31;;;;;;;;;;;23.40;32.40;;;;;;1631303;71;761;-55
2021/03/18 07:39:33;;;;;;;;;;;23.50;32.70;;;;;;1625107;71;808;-58
2021/03/18 07:41:35;;;;;;;;;;;23.40;31.10;;;;;;1646471;71;1109;-58
2021/03/18 07:43:37;;;;;;;;;;;23.30;29.90;;;;;;1620545;71;754;-56
2021/03/18 07:45:39;;;;;;;;;;;23.40;29.70;;;;;;1637813;71;793;-58
2021/03/18 07:47:41;;;;;;;;;;;23.20;30.70;;;;;;1630988;71;676;-57
2021/03/18 07:49:43;;;;;;;;;;;23.20;31.30;;;;;;1633814;71;1942;-55
2021/03/18 07:51:46;;;;;;;;;;;23.20;31.50;;;;;;1629468;71;1227;-56
2021/03/18 07:53:51;;;;;;;;;;;23.20;32.00;;;;;;1637009;71;755;-54
2021/03/18 07:55:53;;;;;;;;;;;23.20;32.30;;;;;;1627468;71;766;-57
2021/03/18 07:57:55;;;;;;;;;;;23.20;32.80;;;;;;1634072;71;742;-55
2021/03/18 08:00:10;;;;;;;;;;;23.10;33.10;;;;;;1637419;71;772;-54
2021/03/18 08:02:17;;;;;;;;;;;23.10;33.40;;;;;;1633276;71;1152;-58
2021/03/18 08:04:19;;;;;;;;;;;23.10;33.50;;;;;;1631062;71;744;-58
2021/03/18 08:06:39;;;;;;;;;;;23.10;33.70;;;;;;1621753;71;761;-58
2021/03/18 08:08:41;;;;;;;;;;;23.10;33.80;;;;;;1610363;71;1938;-57
2021/03/18 08:10:43;;;;;;;;;;;23.10;33.80;;;;;;1619412;71;779;-58
2021/03/18 08:12:46;;;;;;;;;;;23.20;33.90;;;;;;1617534;71;1255;-55
2021/03/18 08:14:47;;;;;;;;;;;23.20;33.90;;;;;;1623337;71;807;-56
2021/03/18 08:16:50;;;;;;;;;;;23.30;33.90;;;;;;1605306;71;765;-56
2021/03/18 08:18:52;;;;;;;;;;;23.20;33.90;;;;;;1615455;71;753;-58
2021/03/18 08:21:01;;;;;;;;;;;23.30;33.90;;;;;;1614657;71;800;-55
2021/03/18 08:22:59;;;;;;;;;;;23.30;34.10;;;;;;1622041;71;1398;-56
2021/03/18 08:25:19;;;;;;;;;;;23.40;34.10;;;;;;1626169;71;983;-53
2021/03/18 08:27:22;;;;;;;;;;;23.50;34.10;;;;;;1632303;71;743;-56
2021/03/18 08:29:35;;;;;;;;;;;23.40;34.00;;;;;;1626143;71;1937;-58
2021/03/18 08:31:47;;;;;;;;;;;23.40;34.00;;;;;;1642220;71;1124;-54
2021/03/18 08:33:49;;;;;;;;;;;23.50;34.10;;;;;;1635674;71;720;-58
2021/03/18 08:35:51;;;;;;;;;;;23.50;34.20;;;;;;1615969;71;649;-58
2021/03/18 08:37:55;;;;;;;;;;;23.50;34.10;;;;;;1612730;71;751;-58
2021/03/18 08:39:56;;;;;;;;;;;23.50;34.20;;;;;;1622493;71;1123;-57
2021/03/18 08:41:58;;;;;;;;;;;23.50;34.20;;;;;;1618972;71;1180;-57
2021/03/18 08:44:18;;;;;;;;;;;23.50;34.30;;;;;;1622824;71;791;-57
2021/03/18 08:46:39;;;;;;;;;;;23.50;34.20;;;;;;1608282;71;712;-57
2021/03/18 08:48:41;;;;;;;;;;;23.50;34.30;;;;;;1613936;71;1941;-56
2021/03/18 08:50:44;;;;;;;;;;;23.50;34.30;;;;;;1610153;73;751;-56
2021/03/18 08:52:46;;;;;;;;;;;23.50;34.30;;;;;;1619825;71;1189;-55
2021/03/18 08:54:51;;;;;;;;;;;23.50;34.40;;;;;;1618954;71;741;-58
2021/03/18 08:56:53;;;;;;;;;;;23.50;34.40;;;;;;1617614;71;812;-55
2021/03/18 08:58:56;;;;;;;;;;;23.50;34.50;;;;;;1609117;71;803;-58
2021/03/18 09:00:58;;;;;;;;;;;23.40;34.50;;;;;;1613321;71;741;-59
2021/03/18 09:03:00;;;;;;;;;;;23.40;34.50;;;;;;1611094;71;1184;-55
2021/03/18 09:05:03;;;;;;;;;;;23.40;34.60;;;;;;1616734;71;758;-57
2021/03/18 09:07:05;;;;;;;;;;;23.40;34.60;;;;;;1624657;71;1816;-53
2021/03/18 09:09:07;;;;;;;;;;;23.40;34.70;;;;;;1617171;71;1950;-58
2021/03/18 09:11:09;;;;;;;;;;;23.40;34.20;;;;;;1587765;73;1172;-55
2021/03/18 09:13:21;;;;;;;;;;;23.40;34.50;;;;;;1623690;71;1175;-58
2021/03/18 09:15:30;;;;;;;;;;;23.40;34.50;;;;;;1609488;71;732;-58
2021/03/18 09:17:32;;;;;;;;;;;23.40;34.40;;;;;;1613690;71;720;-58
2021/03/18 09:19:34;;;;;;;;;;;23.40;34.40;;;;;;1631415;71;761;-56
2021/03/18 09:21:38;;;;;;;;;;;23.40;34.30;;;;;;1639417;71;1156;-58
2021/03/18 09:23:40;;;;;;;;;;;23.40;34.40;;;;;;1623637;71;1356;-54
2021/03/18 09:25:43;;;;;;;;;;;23.50;34.20;;;;;;1624494;71;745;-57
2021/03/18 09:27:45;;;;;;;;;;;23.50;34.20;;;;;;1619842;71;747;-58
2021/03/18 09:29:47;;;;;;;;;;;23.40;34.20;;;;;;1629270;71;1994;-58
2021/03/18 09:31:49;;;;;;;;;;;23.40;34.20;;;;;;1628333;70;214529;-66
2021/03/18 09:33:52;;;;;;;;;;;23.40;34.30;;;;;;1632035;71;780;-67
2021/03/18 09:35:54;;;;;;;;;;;23.40;34.20;;;;;;1631218;71;755;-65
2021/03/18 09:37:57;;;;;;;;;;;23.40;34.40;;;;;;1624486;71;770;-65
2021/03/18 09:39:59;;;;;;;;;;;23.40;34.40;;;;;;1620834;71;755;-65
2021/03/18 09:42:02;;;;;;;;;;;23.40;34.40;;;;;;1606426;72;1264;-66
2021/03/18 09:44:08;;;;;;;;;;;23.40;34.40;;;;;;1596078;72;770;-66
2021/03/18 09:46:10;;;;;;;;;;;23.40;34.40;;;;;;1603716;72;1643;-66
2021/03/18 09:48:12;;;;;;;;;;;23.30;34.30;;;;;;1602085;72;828;-66
2021/03/18 09:50:14;;;;;;;;;;;23.20;34.40;;;;;;1611272;72;1952;-66
2021/03/18 09:52:18;;;;;;;;;;;23.30;34.70;;;;;;1599483;72;1229;-64
2021/03/18 09:54:21;;;;;;;;;;;23.40;34.90;;;;;;1600258;72;1861;-67
2021/03/18 09:56:23;;;;;;;;;;;23.40;35.00;;;;;;1607654;72;761;-65
2021/03/18 09:58:25;;;;;;;;;;;23.40;35.00;;;;;;1604998;72;746;-67
2021/03/18 10:00:28;;;;;;;;;;;23.30;35.00;;;;;;1564074;73;1293;-67
2021/03/18 10:02:30;;;;;;;;;;;23.30;35.00;;;;;;1596619;72;1108;-68
2021/03/18 10:04:38;;;;;;;;;;;23.20;35.00;;;;;;1604523;72;804;-68
2021/03/18 10:06:42;;;;;;;;;;;23.20;35.00;;;;;;1603981;72;786;-65
2021/03/18 10:08:44;;;;;;;;;;;23.20;34.90;;;;;;1595162;72;1007;-67
2021/03/18 10:10:46;;;;;;;;;;;23.40;35.00;;;;;;1606900;72;1926;-68
2021/03/18 10:12:49;;;;;;;;;;;23.30;35.00;;;;;;1602513;72;710;-68
2021/03/18 10:14:55;;;;;;;;;;;23.20;34.70;;;;;;1610468;72;815;-70
2021/03/18 10:16:58;;;;;;;;;;;23.20;34.70;;;;;;1607751;72;685;-68
2021/03/18 10:19:00;;;;;;;;;;;23.30;34.80;;;;;;1601757;72;735;-67
2021/03/18 10:21:03;;;;;;;;;;;23.30;34.80;;;;;;1599455;72;1165;-69
2021/03/18 10:23:06;;;;;;;;;;;23.20;34.90;;;;;;1600047;72;666;-67
2021/03/18 10:25:08;;;;;;;;;;;23.10;34.90;;;;;;1601025;72;800;-68
2021/03/18 10:27:12;;;;;;;;;;;23.10;34.90;;;;;;1608867;72;634;-67
2021/03/18 10:29:14;;;;;;;;;;;23.10;34.90;;;;;;1607079;72;1942;-68
2021/03/18 10:31:16;;;;;;;;;;;23.20;34.90;;;;;;1606381;72;1161;-65
2021/03/18 10:33:20;;;;;;;;;;;23.20;34.80;;;;;;1603039;72;669;-68
2021/03/18 10:35:22;;;;;;;;;;;23.20;34.80;;;;;;1603078;72;736;-67
2021/03/18 10:37:28;;;;;;;;;;;23.10;34.70;;;;;;1615840;72;775;-67
2021/03/18 10:39:30;;;;;;;;;;;23.20;34.70;;;;;;1609546;72;759;-68
2021/03/18 10:41:32;;;;;;;;;;;23.20;34.70;;;;;;1613451;72;1178;-67
2021/03/18 10:43:34;;;;;;;;;;;23.20;34.70;;;;;;1607613;72;780;-68
2021/03/18 10:45:37;;;;;;;;;;;23.10;34.60;;;;;;1604223;72;806;-68
2021/03/18 10:47:41;;;;;;;;;;;23.10;34.70;;;;;;1611049;72;756;-70
2021/03/18 10:49:44;;;;;;;;;;;23.10;34.60;;;;;;1601835;72;1949;-68
2021/03/18 10:51:46;;;;;;;;;;;23.10;34.60;;;;;;1603101;72;1171;-68
2021/03/18 10:53:48;;;;;;;;;;;23.10;34.60;;;;;;1604379;72;743;-68
2021/03/18 10:55:51;;;;;;;;;;;23.10;34.70;;;;;;1604385;72;800;-68
2021/03/18 10:57:53;;;;;;;;;;;23.10;34.40;;;;;;1612415;72;740;-68
2021/03/18 10:59:58;;;;;;;;;;;23.20;34.50;;;;;;1604216;72;769;-66
2021/03/18 11:02:04;;;;;;;;;;;23.20;34.50;;;;;;1611991;72;1089;-68
2021/03/18 11:04:06;;;;;;;;;;;23.20;34.40;;;;;;1608169;72;825;-72
2021/03/18 11:06:20;;;;;;;;;;;23.20;34.40;;;;;;1612278;72;749;-67
2021/03/18 11:08:30;;;;;;;;;;;23.20;34.40;;;;;;1610102;72;754;-68
2021/03/18 11:10:34;;;;;;;;;;;23.30;34.40;;;;;;1603215;72;1927;-67
2021/03/18 11:12:36;;;;;;;;;;;23.30;34.40;;;;;;1603936;72;806;-67
2021/03/18 11:14:37;;;;;;;;;;;23.30;34.40;;;;;;1601758;72;665;-68
2021/03/18 11:16:40;;;;;;;;;;;23.20;34.20;;;;;;1617217;72;734;-68
2021/03/18 11:18:43;;;;;;;;;;;23.30;34.30;;;;;;1620577;72;616;-67
2021/03/18 11:20:46;;;;;;;;;;;23.20;34.20;;;;;;1615936;72;1150;-68
2021/03/18 11:22:49;;;;;;;;;;;23.20;34.20;;;;;;1621981;72;773;-67
2021/03/18 11:24:52;;;;;;;;;;;23.20;34.20;;;;;;1599240;72;1151;-67
2021/03/18 11:26:55;;;;;;;;;;;23.20;34.10;;;;;;1602661;72;1065;-66
2021/03/18 11:28:58;;;;;;;;;;;23.20;34.10;;;;;;1601205;72;748;-67
2021/03/18 11:31:01;;;;;;;;;;;23.20;34.20;;;;;;1603808;72;1935;-67
2021/03/18 11:33:09;;;;;;;;;;;23.20;34.10;;;;;;1567006;73;1021;-67
2021/03/18 11:35:11;;;;;;;;;;;23.20;34.10;;;;;;1607888;72;795;-68
2021/03/18 11:37:13;;;;;;;;;;;23.20;34.00;;;;;;1606173;72;794;-69
2021/03/18 11:39:16;;;;;;;;;;;23.10;34.10;;;;;;1613364;72;839;-63
2021/03/18 11:41:18;;;;;;;;;;;23.10;34.10;;;;;;1601064;72;1225;-67
2021/03/18 11:43:20;;;;;;;;;;;23.10;34.10;;;;;;1600720;72;751;-68
2021/03/18 11:45:22;;;;;;;;;;;23.00;34.00;;;;;;1603379;72;753;-68
2021/03/18 11:47:24;;;;;;;;;;;23.00;33.90;;;;;;1608050;72;754;-67
2021/03/18 11:49:26;;;;;;;;;;;23.00;33.90;;;;;;1605764;72;1938;-68
2021/03/18 11:51:28;;;;;;;;;;;23.00;33.80;;;;;;1601595;72;1181;-71
2021/03/18 11:53:30;;;;;;;;;;;23.00;33.90;;;;;;1603440;72;732;-64
2021/03/18 11:55:31;;;;;;;;;;;23.00;33.90;;;;;;1601939;72;669;-64
2021/03/18 11:57:33;;;;;;;;;;;22.90;34.10;;;;;;1603266;72;794;-64
2021/03/18 11:59:35;;;;;;;;;;;22.90;33.90;;;;;;1598214;72;822;-65
2021/03/18 12:01:37;;;;;;;;;;;23.00;34.10;;;;;;1598838;72;1167;-62
2021/03/18 12:03:39;;;;;;;;;;;23.00;34.10;;;;;;1598799;72;804;-65
2021/03/18 12:05:41;;;;;;;;;;;23.00;34.10;;;;;;1602908;72;787;-64
2021/03/18 12:07:43;;;;;;;;;;;23.00;34.20;;;;;;1602835;72;845;-64
2021/03/18 12:09:45;;;;;;;;;;;23.00;34.30;;;;;;1604355;72;1944;-64
2021/03/18 12:11:47;;;;;;;;;;;22.90;34.40;;;;;;1598191;72;1187;-64
2021/03/18 12:13:49;;;;;;;;;;;23.00;34.40;;;;;;1600371;72;800;-63